Latest Weather Observations for Point Stuart

IDD60801

Issued at 4:31 pm CST Wednesday 25 May 2016 (issued every 30 minutes, with the page automatically refreshed every 10 minutes)

About weather observations | Map of weather stations | Latest weather observations for NT | Other Formats
Station Details ID: 014254 Name: POINT STUART Lat: -12.24 Lon: 131.88 Height: 1.0 m
Data from the previous 72 hours. | See also: Recent months at Point Stuart
Date/Time
CST
Temp
°C
App
Temp
°C
Dew
Point
Rel
Hum
%
Delta-T
°C
Wind Press
QNH
hPa
Press
MSL
hPa
Rain
since 9 am
mm
Dir
 
Spd
km/h
Gust
km/h
Spd
kts
Gust
kts
25/04:30pm 31.3 34.8 24.2 66 5.0 NNW 13 20 7 11 1009.5 - 0.0
25/04:00pm 31.6 34.7 24.2 65 5.2 N 15 22 8 12 1009.5 - 0.0
25/03:30pm 31.4 34.8 24.0 65 5.1 N 13 26 7 14 1009.7 - 0.0
25/03:00pm 31.7 35.3 24.3 65 5.2 N 13 22 7 12 1009.7 1009.7 0.0
25/02:30pm 32.0 35.9 24.8 65 5.1 N 13 24 7 13 1009.9 - 0.0
25/02:00pm 32.1 36.0 24.9 65 5.1 N 13 20 7 11 1010.2 - 0.0
25/01:30pm 31.8 35.0 24.9 67 4.9 NNE 17 28 9 15 1010.6 - 0.0
25/01:00pm 32.0 35.6 25.6 69 4.5 NNE 17 24 9 13 1011.2 - 0.0
25/12:30pm 32.0 36.1 25.8 69 4.4 NNE 15 24 8 13 1011.6 - 0.0
25/12:00pm 31.5 36.0 25.8 72 4.1 NNE 13 20 7 11 1012.1 1012.1 0.0
25/11:30am 31.3 35.6 26.1 74 3.7 ENE 15 20 8 11 1012.5 - 0.0
25/11:00am 31.0 36.0 26.5 77 3.2 ENE 13 20 7 11 1012.7 - 0.0
25/10:30am 30.3 35.4 26.7 81 2.6 ENE 13 19 7 10 1013.0 - 0.0
25/10:00am 29.7 35.8 27.1 86 1.9 E 9 13 5 7 1013.1 - 0.0
25/09:30am 29.2 36.1 27.6 91 1.2 E 7 11 4 6 1013.2 - 0.0
25/09:00am 28.4 35.3 27.7 96 0.5 ESE 7 9 4 5 1013.2 1013.2 0.2
25/08:30am 27.0 33.6 27.0 100 0.0 E 6 7 3 4 1012.9 - 0.2
25/08:00am 25.0 31.5 25.0 100 0.0 CALM 0 0 0 0 1012.7 - 0.2
25/07:30am 24.1 29.1 23.9 99 0.1 SW 4 7 2 4 1012.4 - 0.2
25/07:00am 23.9 29.4 23.4 97 0.3 CALM 0 0 0 0 1012.1 - 0.2
25/06:30am 24.0 29.4 23.3 96 0.5 CALM 0 0 0 0 1012.0 - 0.2
25/06:00am 23.9 28.8 23.0 95 0.6 SSE 2 6 1 3 1011.7 1011.7 0.2
25/05:30am 24.0 28.2 23.1 95 0.6 S 6 9 3 5 1011.4 - 0.2
25/05:00am 24.1 29.4 23.1 94 0.7 CALM 0 0 0 0 1011.3 - 0.2
25/04:30am 24.2 29.0 22.8 92 0.9 E 2 9 1 5 1011.2 - 0.2
25/04:00am 24.4 28.2 22.8 91 1.1 ENE 7 11 4 6 1011.2 - 0.2
25/03:30am 24.9 28.3 23.3 91 1.1 N 11 19 6 10 1011.3 - 0.2
25/03:00am 25.5 30.0 24.6 95 0.6 E 9 17 5 9 1011.6 1011.6 0.2
25/02:30am 25.7 32.0 24.7 94 0.7 CALM 0 0 0 0 1011.6 - 0.2
25/02:00am 25.9 32.2 24.7 93 0.8 CALM 0 0 0 0 1011.8 - 0.2
25/01:30am 25.9 32.0 24.5 92 1.0 CALM 0 0 0 0 1012.0 - 0.2
25/01:00am 25.9 31.3 24.5 92 1.0 SE 4 7 2 4 1012.1 - 0.2
25/12:30am 26.0 30.8 24.4 91 1.1 NE 7 13 4 7 1012.2 - 0.2
25/12:00am 25.8 29.8 23.8 89 1.4 SW 9 11 5 6 1012.1 1012.1 0.2
 
Date/Time
CST
Temp
°C
App
Temp
°C
Dew
Point
Rel
Hum
%
Delta-T
°C
Wind Press
QNH
hPa
Press
MSL
hPa
Rain
since 9 am
mm
Dir
 
Spd
km/h
Gust
km/h
Spd
kts
Gust
kts
24/11:30pm 26.1 30.8 24.0 88 1.4 SW 6 7 3 4 1012.2 - 0.2
24/11:00pm 26.6 30.8 24.1 86 1.7 SW 9 11 5 6 1012.2 - 0.2
24/10:30pm 27.0 31.7 24.3 85 1.9 W 7 9 4 5 1012.0 - 0.2
24/10:00pm 27.1 31.5 24.4 85 1.9 WNW 9 11 5 6 1012.1 - 0.2
24/09:30pm 27.3 31.9 24.2 83 2.1 NNW 7 9 4 5 1012.1 - 0.2
24/09:00pm 27.3 32.4 24.0 82 2.3 N 4 7 2 4 1011.9 1011.9 0.2
24/08:30pm 27.4 32.3 23.6 80 2.6 N 4 7 2 4 1011.5 - 0.2
24/08:00pm 27.7 32.0 23.3 77 3.0 NNW 6 9 3 5 1011.0 - 0.2
24/07:30pm 28.1 33.1 23.2 74 3.3 NNW 2 7 1 4 1010.7 - 0.2
24/07:00pm 28.7 32.7 23.1 71 3.8 NNW 7 11 4 6 1010.4 - 0.2
24/06:30pm 29.3 33.6 23.3 70 4.1 NNW 6 11 3 6 1010.1 - 0.2
24/06:00pm 30.3 33.4 23.5 67 4.7 NNW 13 19 7 10 1010.0 1010.0 0.2
24/05:30pm 31.3 35.6 24.2 66 5.0 NNW 9 15 5 8 1009.5 - 0.2
24/05:00pm 31.2 35.2 23.8 64 5.1 NNW 9 13 5 7 1009.3 - 0.2
24/04:30pm 32.1 36.0 24.9 65 5.1 NNW 13 20 7 11 1009.4 - 0.2
24/04:00pm 32.1 36.3 24.7 65 5.2 NW 11 17 6 9 1009.4 - 0.2
24/03:30pm 32.2 36.6 25.0 65 5.1 NNW 11 20 6 11 1009.6 - 0.2
24/03:00pm 32.2 36.6 25.0 65 5.1 NNW 11 20 6 11 1009.8 1009.8 0.2
24/02:30pm 32.0 36.2 24.8 65 5.1 N 11 17 6 9 1010.1 - 0.2
24/02:00pm 31.9 36.3 25.0 67 4.9 N 11 17 6 9 1010.5 - 0.2
24/01:30pm 31.8 36.7 25.2 68 4.7 N 9 17 5 9 1011.2 - 0.2
24/01:00pm 31.5 36.5 25.4 70 4.3 NNE 9 17 5 9 1011.8 - 0.2
24/12:30pm 31.4 36.3 25.3 70 4.3 NNE 9 17 5 9 1012.2 - 0.2
24/12:00pm 30.7 35.8 25.5 74 3.7 NNE 9 13 5 7 1012.8 1012.8 0.2
24/11:30am 30.5 36.0 26.2 78 3.1 ENE 9 13 5 7 1013.2 - 0.2
24/11:00am 29.6 34.7 26.2 82 2.4 ENE 11 15 6 8 1013.6 - 0.2
24/10:30am 29.1 35.9 27.5 91 1.2 E 7 15 4 8 1013.7 - 0.2
24/10:00am 28.2 35.8 27.9 98 0.2 S 4 7 2 4 1013.7 - 0.0
24/09:30am 26.9 33.5 26.9 100 0.0 S 6 9 3 5 1013.7 - 0.0
24/09:00am 26.6 32.8 26.6 100 0.0 S 7 9 4 5 1013.4 1013.4 19.2
24/08:30am 25.7 31.5 25.7 100 0.0 S 6 9 3 5 1013.2 - 19.2
24/08:00am 25.2 30.5 25.2 100 0.0 S 7 11 4 6 1012.9 - 19.2
24/07:30am 25.0 30.1 25.0 100 0.0 SSE 7 11 4 6 1012.5 - 19.2
24/07:00am 24.6 28.3 24.6 100 0.0 N 13 20 7 11 1011.9 - 19.2
24/06:30am 24.4 29.2 24.2 99 0.1 NNW 6 9 3 5 1012.3 - 19.2
24/06:00am 24.2 27.4 23.7 97 0.3 N 13 17 7 9 1012.2 1012.2 18.8
24/05:30am 24.8 27.5 24.1 96 0.5 NW 17 20 9 11 1012.1 - 3.2
24/05:00am 26.1 31.5 25.4 96 0.5 SSW 7 9 4 5 1011.5 - 0.6
24/04:30am 26.3 31.9 25.4 95 0.6 SSW 6 11 3 6 1011.1 - 0.6
24/04:00am 26.8 33.8 25.8 94 0.7 CALM 0 0 0 0 1011.0 - 0.4
24/03:30am 26.6 33.2 25.2 92 1.0 CALM 0 0 0 0 1011.1 - 0.0
24/03:00am 26.5 31.2 24.9 91 1.1 ESE 9 11 5 6 1011.2 1011.2 0.0
24/02:30am 27.0 32.8 25.2 90 1.3 SSE 4 9 2 5 1011.5 - 0.0
24/02:00am 27.5 33.8 25.3 88 1.5 E 2 7 1 4 1011.9 - 0.0
24/01:30am 27.6 33.0 25.2 87 1.7 NNE 6 11 3 6 1012.2 - 0.0
24/01:00am 27.6 32.9 25.0 86 1.8 N 6 9 3 5 1012.4 - 0.0
24/12:30am 27.7 33.0 24.9 85 2.0 N 6 9 3 5 1012.6 - 0.0
24/12:00am 28.0 33.4 25.2 85 2.0 N 6 9 3 5 1012.6 1012.6 0.0
 
Date/Time
CST
Temp
°C
App
Temp
°C
Dew
Point
Rel
Hum
%
Delta-T
°C
Wind Press
QNH
hPa
Press
MSL
hPa
Rain
since 9 am
mm
Dir
 
Spd
km/h
Gust
km/h
Spd
kts
Gust
kts
23/11:30pm 28.4 33.8 25.4 84 2.1 N 7 11 4 6 1012.5 - 0.0
23/11:00pm 28.5 33.9 25.5 84 2.1 N 7 13 4 7 1012.2 - 0.0
23/10:30pm 28.7 34.1 25.5 83 2.3 N 7 15 4 8 1012.1 - 0.0
23/10:00pm 28.8 33.5 25.6 83 2.3 N 11 19 6 10 1011.9 - 0.0
23/09:30pm 28.7 33.5 25.1 81 2.5 N 9 17 5 9 1011.7 - 0.0
23/09:00pm 28.5 33.4 24.7 80 2.7 N 7 13 4 7 1011.4 1011.4 0.0
23/08:30pm 28.5 33.3 24.5 79 2.8 N 7 11 4 6 1010.9 - 0.0
23/08:00pm 28.6 32.9 24.2 77 3.1 NNW 9 13 5 7 1010.6 - 0.0
23/07:30pm 28.6 32.6 23.7 75 3.4 NNW 9 13 5 7 1010.2 - 0.0
23/07:00pm 28.9 32.8 23.6 73 3.6 NNW 9 17 5 9 1009.8 - 0.0
23/06:30pm 29.4 33.3 23.6 71 4.0 NNW 9 13 5 7 1009.5 - 0.0
23/06:00pm 30.3 33.5 23.7 68 4.6 NNW 13 17 7 9 1009.3 1009.3 0.0
23/05:30pm 31.0 34.4 24.1 66 4.8 NNW 13 20 7 11 1009.1 - 0.0
23/05:00pm 31.4 35.2 24.0 65 5.1 NNW 11 20 6 11 1008.7 - 0.0
23/04:30pm 32.0 35.6 24.3 63 5.4 N 13 20 7 11 1008.4 - 0.0
23/04:00pm 32.5 36.6 24.5 62 5.6 N 11 15 6 8 1008.3 - 0.0
23/03:30pm 32.9 37.6 24.9 63 5.6 N 9 15 5 8 1008.4 - 0.0
23/03:00pm 32.6 36.7 24.6 62 5.6 N 11 20 6 11 1008.8 1008.8 0.0
23/02:30pm 32.9 37.0 25.2 64 5.5 N 13 20 7 11 1009.2 - 0.0
23/02:00pm 32.6 36.9 24.9 64 5.4 NNW 11 20 6 11 1009.6 - 0.0
23/01:30pm 32.2 34.5 24.5 64 5.4 NW 20 33 11 18 1010.3 - 0.0
23/01:00pm 33.3 38.2 25.8 65 5.4 ENE 11 15 6 8 1010.9 - 0.0
23/12:30pm 32.5 37.2 25.6 67 4.9 ENE 11 20 6 11 1011.5 - 0.0
23/12:00pm 32.1 36.9 26.2 71 4.2 ENE 13 17 7 9 1011.9 1011.9 0.0
23/11:30am 31.7 36.3 26.5 74 3.7 ENE 15 20 8 11 1012.4 - 0.0
23/11:00am 30.5 36.0 26.2 78 3.1 SE 9 19 5 10 1012.8 - 0.0
23/10:30am 30.0 35.4 26.6 82 2.4 SSE 11 19 6 10 1013.1 - 0.0
23/10:00am 29.1 33.7 26.5 86 1.9 S 15 20 8 11 1013.4 - 0.0
23/09:30am 28.6 33.2 26.6 89 1.4 SE 15 20 8 11 1013.5 - 0.0
23/09:00am 28.0 32.6 26.6 92 1.0 ESE 15 20 8 11 1013.5 1013.5 0.0
23/08:30am 27.0 32.6 26.3 96 0.5 SE 9 13 5 7 1013.3 - 0.0
23/08:00am 26.1 31.8 25.9 99 0.1 ESE 7 11 4 6 1013.2 - 0.0
23/07:30am 24.9 30.0 24.7 99 0.1 ENE 6 9 3 5 1013.1 - 0.0
23/07:00am 24.1 28.1 23.8 98 0.2 E 9 11 5 6 1012.7 - 0.0
23/06:30am 24.0 28.8 23.5 97 0.3 S 4 9 2 5 1012.3 - 0.0
23/06:00am 24.4 28.9 23.9 97 0.3 S 7 9 4 5 1011.8 1011.8 0.0
23/05:30am 24.6 27.5 23.9 96 0.5 S 15 19 8 10 1011.4 - 0.0
23/05:00am 24.6 27.2 23.9 96 0.5 S 17 20 9 11 1011.1 - 0.0
23/04:30am 24.6 27.8 23.7 95 0.6 S 13 17 7 9 1011.0 - 0.0
23/04:00am 24.7 27.9 23.7 94 0.7 S 13 15 7 8 1011.1 - 0.0
23/03:30am 24.9 28.5 23.7 93 0.8 S 11 13 6 7 1011.4 - 0.0
23/03:00am 24.8 28.2 23.4 92 1.0 S 11 13 6 7 1011.5 1011.5 0.0
23/02:30am 24.9 28.6 23.3 91 1.1 SSW 9 11 5 6 1011.5 - 0.0
23/02:00am 25.4 29.2 23.5 89 1.3 S 9 11 5 6 1011.6 - 0.0
23/01:30am 25.9 29.2 23.8 88 1.4 S 13 15 7 8 1011.9 - 0.0
23/01:00am 26.6 31.2 24.1 86 1.7 S 7 9 4 5 1012.0 - 0.0
23/12:30am 27.6 33.9 24.8 85 2.0 CALM 0 0 0 0 1011.9 - 0.0
23/12:00am 27.9 33.5 24.9 84 2.1 N 4 9 2 5 1011.8 1011.8 0.0
 
Date/Time
CST
Temp
°C
App
Temp
°C
Dew
Point
Rel
Hum
%
Delta-T
°C
Wind Press
QNH
hPa
Press
MSL
hPa
Rain
since 9 am
mm
Dir
 
Spd
km/h
Gust
km/h
Spd
kts
Gust
kts
22/11:30pm 28.2 33.9 25.0 83 2.2 N 4 9 2 5 1011.8 - 0.0
22/11:00pm 28.3 33.1 25.1 83 2.2 N 9 15 5 8 1011.8 - 0.0
22/10:30pm 28.3 33.1 25.1 83 2.2 N 9 15 5 8 1011.8 - 0.0
22/10:00pm 27.4 31.8 23.8 81 2.5 N 7 9 4 5 1011.9 - 0.0
22/09:30pm 26.8 30.8 22.8 79 2.7 N 6 9 3 5 1011.8 - 0.0
22/09:00pm 26.9 31.8 22.3 76 3.1 CALM 0 7 0 4 1011.7 1011.7 0.0
22/08:30pm 27.2 32.0 22.2 74 3.4 CALM 0 0 0 0 1011.5 - 0.0
22/08:00pm 27.7 31.4 22.2 72 3.7 NW 6 7 3 4 1010.9 - 0.0
22/07:30pm 28.3 31.9 22.3 70 4.1 NNW 7 9 4 5 1010.4 - 0.0
22/07:00pm 29.0 32.7 22.2 66 4.6 NNW 6 7 3 4 1010.4 - 0.0
22/06:30pm 30.0 35.1 22.7 65 5.0 CALM 0 0 0 0 1010.3 - 0.0
22/06:00pm 30.7 35.1 22.8 62 5.4 N 4 7 2 4 1010.3 1010.3 0.0
22/05:30pm 31.5 36.1 23.1 61 5.8 NNE 4 9 2 5 1010.4 - 0.0
22/05:00pm 31.4 34.8 22.7 60 6.0 NNE 9 17 5 9 1010.1 - 0.0

Other Formats:

Comma delimited format used in spreadsheet applications
http://www.bom.gov.au/fwo/IDD60801/IDD60801.94127.axf

JavaScript Object Notation format (JSON) in row-major order
http://www.bom.gov.au/fwo/IDD60801/IDD60801.94127.json